createdAt,value
2019-04-10T00:00:44.309Z,11
2019-04-10T00:05:31.927Z,10.6
2019-04-10T00:10:19.521Z,10.4
2019-04-10T00:15:07.229Z,10.4
2019-04-10T00:19:54.493Z,9.3
2019-04-10T00:27:07.807Z,9.3
2019-04-10T00:31:56.297Z,8.6
2019-04-10T00:36:43.610Z,9.3
2019-04-10T00:41:32.285Z,10.6
2019-04-10T00:46:21.834Z,9.5
2019-04-10T00:51:09.279Z,8.5
2019-04-10T00:55:58.112Z,8.7
2019-04-10T01:00:45.564Z,7.2
2019-04-10T01:05:33.416Z,7.8
2019-04-10T01:12:30.077Z,6.8
2019-04-10T01:17:19.634Z,6.1
2019-04-10T01:22:07.295Z,6.7
2019-04-10T01:26:54.531Z,6.5
2019-04-10T01:31:41.473Z,6.4
2019-04-10T01:36:29.177Z,5.9
2019-04-10T01:41:17.349Z,6
2019-04-10T01:46:06.176Z,5.6
2019-04-10T01:50:55.319Z,6.8
2019-04-10T01:56:57.844Z,5.1
2019-04-10T02:01:45.000Z,5.2
2019-04-10T02:06:32.311Z,5.1
2019-04-10T02:11:19.676Z,5.3
2019-04-10T02:16:08.242Z,5.6
2019-04-10T02:20:56.117Z,5
2019-04-10T02:25:45.089Z,4.5
2019-04-10T02:30:33.011Z,4.4
2019-04-10T02:35:24.540Z,5.4
2019-04-10T02:41:03.549Z,5.3
2019-04-10T02:45:51.286Z,5.3
2019-04-10T02:50:38.161Z,5.8
2019-04-10T02:55:27.242Z,5.8
2019-04-10T03:00:14.537Z,6.2
2019-04-10T03:05:01.833Z,5.2
2019-04-10T03:10:02.429Z,5.9
2019-04-10T03:14:55.870Z,5.8
2019-04-10T03:20:16.207Z,4.9
2019-04-10T03:25:03.074Z,4.8
2019-04-10T03:29:52.069Z,5
2019-04-10T03:34:40.689Z,5
2019-04-10T03:39:33.360Z,5.4
2019-04-10T03:44:22.849Z,5.2
2019-04-10T03:49:10.236Z,5.2
2019-04-10T03:53:59.566Z,6.2
2019-04-10T04:00:08.591Z,5.1
2019-04-10T04:04:56.105Z,4.8
2019-04-10T04:09:43.922Z,5.5
2019-04-10T04:14:30.980Z,5.2
2019-04-10T04:19:20.113Z,5.3
2019-04-10T04:24:09.581Z,5.6
2019-04-10T04:28:56.555Z,5.6
2019-04-10T04:33:44.777Z,5.5
2019-04-10T04:38:32.280Z,5.3
2019-04-10T04:45:53.147Z,5.8
2019-04-10T04:50:41.650Z,5.5
2019-04-10T04:55:29.046Z,5.7
2019-04-10T05:00:17.391Z,5.5
2019-04-10T05:05:04.831Z,5.9
2019-04-10T05:09:52.542Z,6
2019-04-10T05:14:40.032Z,6
2019-04-10T05:19:27.543Z,5.7
2019-04-10T05:26:42.729Z,5.1
2019-04-10T05:31:30.161Z,5
2019-04-10T05:36:17.439Z,5.2
2019-04-10T05:41:04.809Z,4.9
2019-04-10T05:45:51.670Z,5.2
2019-04-10T05:50:39.853Z,5
2019-04-10T05:55:28.887Z,5.1
2019-04-10T06:00:16.714Z,4.8
2019-04-10T06:05:03.903Z,5.5
2019-04-10T06:09:55.789Z,5.1
2019-04-10T06:15:21.159Z,4.7
2019-04-10T06:20:09.152Z,4.7
2019-04-10T06:24:56.531Z,5.4
2019-04-10T06:29:44.995Z,5.3
2019-04-10T06:34:34.500Z,4
2019-04-10T06:39:21.915Z,4.5
2019-04-10T06:44:09.917Z,4.5
2019-04-10T06:48:58.469Z,3.7
2019-04-10T06:53:47.906Z,4.3
2019-04-10T06:58:42.395Z,4.2
2019-04-10T07:03:45.769Z,3.9
2019-04-10T07:08:45.448Z,4.3
2019-04-10T07:13:38.748Z,4.2
2019-04-10T07:18:26.926Z,4.9
2019-04-10T07:23:19.145Z,4.2
2019-04-10T07:28:11.961Z,3.9
2019-04-10T07:32:59.906Z,4.2
2019-04-10T07:37:51.604Z,3.8
2019-04-10T07:42:43.343Z,4.1
2019-04-10T07:47:31.434Z,4.3
2019-04-10T07:52:21.089Z,4.6
2019-04-10T07:57:11.806Z,4.3
2019-04-10T08:02:00.075Z,4.3
2019-04-10T08:06:48.439Z,4.2
2019-04-10T08:11:38.005Z,4.4
2019-04-10T08:16:25.431Z,4.2
2019-04-10T08:21:15.596Z,4.1
2019-04-10T08:26:03.869Z,4.7
2019-04-10T08:30:51.190Z,4.6
2019-04-10T08:35:39.887Z,4.8
2019-04-10T08:40:27.873Z,5
2019-04-10T08:45:15.352Z,4.2
2019-04-10T08:50:03.590Z,4.4
2019-04-10T08:54:53.212Z,4.4
2019-04-10T08:59:40.324Z,4.7
2019-04-10T09:04:28.702Z,4.8
2019-04-10T09:09:17.249Z,4.7
2019-04-10T09:14:05.180Z,4.5
2019-04-10T09:18:52.351Z,4.7
2019-04-10T09:23:47.288Z,4.3
2019-04-10T09:28:40.259Z,4.6
2019-04-10T09:33:30.528Z,4.6
2019-04-10T09:38:20.875Z,4.9
2019-04-10T09:43:11.252Z,4.5
2019-04-10T09:47:59.912Z,5.2
2019-04-10T09:52:48.254Z,5.4
2019-04-10T09:57:36.603Z,5.4
2019-04-10T10:02:25.225Z,5.2
2019-04-10T10:07:12.447Z,5.3
2019-04-10T10:12:01.429Z,4.9
2019-04-10T10:16:48.913Z,5
2019-04-10T10:21:36.687Z,5.3
2019-04-10T10:26:24.007Z,5
2019-04-10T10:31:11.694Z,5
2019-04-10T10:35:59.840Z,4.8
2019-04-10T10:40:46.930Z,5.3
2019-04-10T10:45:34.636Z,5.7
2019-04-10T10:50:22.257Z,6.1
2019-04-10T10:55:11.531Z,5.8
2019-04-10T10:59:59.856Z,5.9
2019-04-10T11:04:47.536Z,5.5
2019-04-10T11:09:35.961Z,5.7
2019-04-10T11:14:26.151Z,5.5
2019-04-10T11:19:13.361Z,5.7
2019-04-10T11:24:00.963Z,4.9
2019-04-10T11:28:49.627Z,5.3
2019-04-10T11:33:39.835Z,5.4
2019-04-10T11:38:29.070Z,5.5
2019-04-10T11:43:16.660Z,5.2
2019-04-10T11:48:03.727Z,5.2
2019-04-10T11:52:53.394Z,5.6
2019-04-10T11:57:45.891Z,6.2
2019-04-10T12:02:34.967Z,5.4
2019-04-10T12:14:43.958Z,5.3
2019-04-10T12:19:31.119Z,6.7
2019-04-10T12:24:19.556Z,5.6
2019-04-10T12:29:06.726Z,6
2019-04-10T12:33:53.631Z,6.6
2019-04-10T12:38:41.598Z,6.3
2019-04-10T12:43:32.563Z,5.8
2019-04-10T12:48:20.826Z,5.5
2019-04-10T12:53:09.471Z,5.7
2019-04-10T12:58:06.490Z,5.9
2019-04-10T13:03:00.795Z,5.6
2019-04-10T13:07:47.809Z,5.9
2019-04-10T13:12:35.483Z,5.8
2019-04-10T13:17:25.414Z,6.1
2019-04-10T13:22:12.711Z,6.1
2019-04-10T13:26:59.863Z,5.8
2019-04-10T13:31:48.801Z,6
2019-04-10T13:36:36.039Z,6.2
2019-04-10T13:41:24.186Z,6.9
2019-04-10T13:46:12.935Z,7.2
2019-04-10T13:51:01.237Z,6.9
2019-04-10T13:55:48.898Z,6.8
2019-04-10T14:00:38.750Z,7.4
2019-04-10T14:05:27.628Z,6.4
2019-04-10T14:10:15.244Z,6.3
2019-04-10T14:15:04.899Z,6.5
2019-04-10T14:19:52.189Z,6.8
2019-04-10T14:24:44.735Z,7.3
2019-04-10T14:29:35.402Z,7.2
2019-04-10T14:34:22.842Z,7.5
2019-04-10T14:39:16.746Z,9.5
2019-04-10T14:44:06.229Z,7.5
2019-04-10T14:48:55.163Z,6.7
2019-04-10T14:53:43.628Z,7.1
2019-04-10T14:58:32.393Z,6.8
2019-04-10T15:03:22.483Z,7.1
2019-04-10T15:08:09.448Z,8
2019-04-10T15:13:06.908Z,8
2019-04-10T15:17:58.352Z,8.1
2019-04-10T15:22:45.569Z,8.1
2019-04-10T15:27:33.323Z,7.2
2019-04-10T15:32:22.344Z,7.8
2019-04-10T15:37:11.089Z,6.6
2019-04-10T15:41:58.113Z,7.8
2019-04-10T15:46:46.272Z,5.7
2019-04-10T15:51:33.510Z,5.9
2019-04-10T15:56:22.099Z,6
2019-04-10T16:01:09.798Z,6.2
2019-04-10T16:05:57.767Z,6
2019-04-10T16:10:46.198Z,6.4
2019-04-10T16:15:33.216Z,6
2019-04-10T16:20:20.390Z,5.9
2019-04-10T16:25:07.783Z,7.3
2019-04-10T16:29:54.623Z,7.1
2019-04-10T16:34:42.883Z,7.6
2019-04-10T16:39:30.095Z,7.5
2019-04-10T16:44:19.151Z,8.3
2019-04-10T16:49:06.613Z,7.4
2019-04-10T16:53:53.774Z,7
2019-04-10T16:58:41.717Z,7.2
2019-04-10T17:03:30.981Z,8.1
2019-04-10T17:08:18.060Z,7.3
2019-04-10T17:13:07.319Z,7.9
2019-04-10T17:17:55.370Z,7
2019-04-10T17:22:46.851Z,7.4
2019-04-10T17:27:35.335Z,7.1
2019-04-10T17:32:23.430Z,6.4
2019-04-10T17:37:11.779Z,6.5
2019-04-10T17:42:00.680Z,5.8
2019-04-10T17:46:49.115Z,6.9
2019-04-10T17:51:36.381Z,8.5
2019-04-10T17:56:24.500Z,8.8
2019-04-10T18:01:12.572Z,8.1
2019-04-10T18:06:01.346Z,7
2019-04-10T18:10:51.125Z,9.5
2019-04-10T18:15:41.204Z,8
2019-04-10T18:20:28.598Z,7.9
2019-04-10T18:25:15.925Z,13
2019-04-10T18:30:03.800Z,13.8
2019-04-10T18:34:52.127Z,12.5
2019-04-10T18:39:39.513Z,14.9
2019-04-10T18:44:28.956Z,16.5
2019-04-10T18:49:19.009Z,16.8
2019-04-10T18:54:06.326Z,15.4
2019-04-10T18:58:54.241Z,15.5
2019-04-10T19:03:49.402Z,30
2019-04-10T19:08:41.931Z,32.5
2019-04-10T19:13:30.733Z,37.5
2019-04-10T19:18:19.871Z,33.9
2019-04-10T19:23:08.868Z,26.6
2019-04-10T19:28:00.329Z,17.4
2019-04-10T19:32:47.814Z,12.8
2019-04-10T19:37:34.824Z,13.2
2019-04-10T19:42:22.929Z,13.4
2019-04-10T19:47:10.754Z,13
2019-04-10T19:52:00.209Z,14.6
2019-04-10T19:56:47.347Z,15.7
2019-04-10T20:01:34.168Z,18.2
2019-04-10T20:06:23.835Z,16.7
2019-04-10T20:11:12.897Z,18.8
2019-04-10T20:16:00.776Z,19.6
2019-04-10T20:20:48.113Z,22.6
2019-04-10T20:25:36.570Z,21
2019-04-10T20:30:23.984Z,17.5
2019-04-10T20:35:12.394Z,19.9
2019-04-10T20:40:03.360Z,21.3
2019-04-10T20:44:51.210Z,23.2
2019-04-10T20:49:40.586Z,21.6
2019-04-10T20:54:28.703Z,23.2
2019-04-10T20:59:16.176Z,20.7
2019-04-10T21:04:05.300Z,17.4
2019-04-10T21:08:52.750Z,15.4
2019-04-10T21:13:40.740Z,15.3
2019-04-10T21:18:29.296Z,15.5
2019-04-10T21:23:17.148Z,12.4
2019-04-10T21:28:04.782Z,11.5
2019-04-10T21:32:53.686Z,11.4
2019-04-10T21:37:42.804Z,11.1
2019-04-10T21:42:29.833Z,11.4
2019-04-10T21:47:17.363Z,12.1
2019-04-10T21:52:05.720Z,14
2019-04-10T21:56:53.545Z,13.2
2019-04-10T22:01:42.254Z,12.8
2019-04-10T22:06:30.207Z,12.3
2019-04-10T22:11:17.585Z,12.4
2019-04-10T22:16:05.822Z,13.8
2019-04-10T22:20:52.864Z,14.7
2019-04-10T22:25:39.912Z,18
2019-04-10T22:30:27.226Z,16.9
2019-04-10T22:35:15.222Z,17.8
2019-04-10T22:40:04.382Z,17.4
2019-04-10T22:44:52.123Z,17.6
2019-04-10T22:49:39.694Z,18
2019-04-10T22:54:26.560Z,17.5
2019-04-10T22:59:13.966Z,17.9
2019-04-10T23:04:03.842Z,19
2019-04-10T23:08:51.686Z,20.1
2019-04-10T23:13:40.553Z,19.3
2019-04-10T23:18:27.653Z,19.5
2019-04-10T23:23:16.807Z,19
2019-04-10T23:28:04.247Z,18.9
2019-04-10T23:32:51.454Z,19.1
2019-04-10T23:40:03.030Z,17.2
2019-04-10T23:44:51.240Z,16.5
2019-04-10T23:49:38.996Z,17.4
2019-04-10T23:54:27.136Z,17
2019-04-10T23:59:14.959Z,17.7
